GIA009 WARR-WIII
Flight info
| Callsign | GIA009 |
|---|---|
| Flight time | 1h 18m |
| Altitude | 38000 |
| Route | LASEM T2 KALUT T6 KURUS |
| Aircraft | B738/M-SDE2E3FGHIRWXY/LB1 |
Departure
| Time | 2026-05-08 18:26 |
|---|---|
| Airport | Juanda International Airport (WARR) |
Arrival
| Time | 2026-05-08 19:44 |
|---|---|
| Airport | Soekarno-Hatta International Airport (WIII) |
| Time | Latitude | Longitude | Altitude | Speed | Heading |
|---|---|---|---|---|---|
| 2026-05-08 17:58 | -7.37544 | 112.79186 | 8 ft | 0 kts | 9° |
| 2026-05-08 18:14 | -7.37558 | 112.79184 | 8 ft | 4 kts | 7° |
| 2026-05-08 18:14 | -7.37585 | 112.79182 | 8 ft | 4 kts | 359° |
| 2026-05-08 18:14 | -7.37612 | 112.79184 | 9 ft | 4 kts | 342° |
| 2026-05-08 18:15 | -7.37633 | 112.79196 | 11 ft | 4 kts | 294° |
| 2026-05-08 18:15 | -7.37636 | 112.79206 | 9 ft | 1 kts | 279° |
| 2026-05-08 18:17 | -7.37636 | 112.79202 | 9 ft | 2 kts | 273° |
| 2026-05-08 18:17 | -7.37633 | 112.79174 | 11 ft | 10 kts | 278° |
| 2026-05-08 18:17 | -7.37608 | 112.79024 | 8 ft | 21 kts | 280° |
| 2026-05-08 18:18 | -7.37597 | 112.78952 | 8 ft | 6 kts | 273° |
| 2026-05-08 18:18 | -7.37648 | 112.78908 | 8 ft | 15 kts | 192° |
| 2026-05-08 18:18 | -7.37781 | 112.78886 | 8 ft | 19 kts | 191° |
| 2026-05-08 18:18 | -7.37822 | 112.78784 | 8 ft | 20 kts | 280° |
| 2026-05-08 18:19 | -7.37799 | 112.78634 | 8 ft | 22 kts | 277° |
| 2026-05-08 18:19 | -7.37775 | 112.78482 | 10 ft | 22 kts | 278° |
| 2026-05-08 18:19 | -7.37750 | 112.78329 | 8 ft | 22 kts | 279° |
| 2026-05-08 18:19 | -7.37725 | 112.78169 | 8 ft | 23 kts | 279° |
| 2026-05-08 18:20 | -7.37691 | 112.77963 | 9 ft | 22 kts | 279° |
| 2026-05-08 18:20 | -7.37675 | 112.77859 | 9 ft | 22 kts | 279° |
| 2026-05-08 18:20 | -7.37650 | 112.77711 | 8 ft | 21 kts | 279° |
| 2026-05-08 18:20 | -7.37627 | 112.77567 | 8 ft | 21 kts | 279° |
| 2026-05-08 18:21 | -7.37609 | 112.77449 | 8 ft | 12 kts | 272° |
| 2026-05-08 18:21 | -7.37637 | 112.77392 | 7 ft | 8 kts | 214° |
| 2026-05-08 18:21 | -7.37661 | 112.77384 | 7 ft | 0 kts | 193° |
| 2026-05-08 18:24 | -7.37661 | 112.77383 | 7 ft | 1 kts | 193° |
| 2026-05-08 18:24 | -7.37681 | 112.77380 | 7 ft | 6 kts | 189° |
| 2026-05-08 18:24 | -7.37738 | 112.77369 | 8 ft | 10 kts | 187° |
| 2026-05-08 18:24 | -7.37768 | 112.77378 | 8 ft | 4 kts | 121° |
| 2026-05-08 18:25 | -7.37776 | 112.77405 | 8 ft | 4 kts | 102° |
| 2026-05-08 18:25 | -7.37796 | 112.77533 | 8 ft | 56 kts | 98° |
| 2026-05-08 18:25 | -7.37905 | 112.78215 | 8 ft | 140 kts | 99° |
| 2026-05-08 18:25 | -7.38053 | 112.79376 | 308 ft | 186 kts | 95° |
| 2026-05-08 18:26 | -7.38194 | 112.80695 | 1213 ft | 199 kts | 101° |
| 2026-05-08 18:26 | -7.38532 | 112.82152 | 1661 ft | 229 kts | 102° |
| 2026-05-08 18:26 | -7.38845 | 112.83824 | 1970 ft | 254 kts | 100° |
| 2026-05-08 18:26 | -7.39162 | 112.85683 | 2166 ft | 282 kts | 100° |
| 2026-05-08 18:27 | -7.39502 | 112.87697 | 2820 ft | 294 kts | 100° |
| 2026-05-08 18:27 | -7.39696 | 112.89047 | 3457 ft | 296 kts | 94° |
| 2026-05-08 18:27 | -7.38939 | 112.91707 | 4669 ft | 305 kts | 56° |
| 2026-05-08 18:27 | -7.37402 | 112.93176 | 5558 ft | 309 kts | 31° |
| 2026-05-08 18:28 | -7.35370 | 112.93916 | 6444 ft | 313 kts | 8° |
| 2026-05-08 18:28 | -7.33218 | 112.93837 | 7246 ft | 318 kts | 346° |
| 2026-05-08 18:28 | -7.31211 | 112.92883 | 8025 ft | 323 kts | 322° |
| 2026-05-08 18:28 | -7.29709 | 112.91196 | 8840 ft | 328 kts | 300° |
| 2026-05-08 18:29 | -7.28684 | 112.89132 | 9604 ft | 333 kts | 295° |
| 2026-05-08 18:29 | -7.27736 | 112.86983 | 10331 ft | 337 kts | 294° |
| 2026-05-08 18:29 | -7.26812 | 112.84824 | 11080 ft | 340 kts | 293° |
| 2026-05-08 18:29 | -7.25866 | 112.82614 | 11813 ft | 343 kts | 293° |
| 2026-05-08 18:30 | -7.24906 | 112.80392 | 12517 ft | 347 kts | 293° |
| 2026-05-08 18:30 | -7.23928 | 112.78151 | 13241 ft | 351 kts | 293° |
| 2026-05-08 18:30 | -7.22936 | 112.75892 | 13921 ft | 354 kts | 293° |
| 2026-05-08 18:30 | -7.21929 | 112.73609 | 14530 ft | 358 kts | 293° |
| 2026-05-08 18:31 | -7.20910 | 112.71307 | 15134 ft | 362 kts | 293° |
| 2026-05-08 18:31 | -7.19886 | 112.68995 | 15752 ft | 365 kts | 293° |
| 2026-05-08 18:31 | -7.18840 | 112.66639 | 16355 ft | 369 kts | 293° |
| 2026-05-08 18:31 | -7.17804 | 112.64306 | 16921 ft | 372 kts | 293° |
| 2026-05-08 18:32 | -7.16725 | 112.61875 | 17490 ft | 376 kts | 293° |
| 2026-05-08 18:32 | -7.15662 | 112.59488 | 18047 ft | 380 kts | 293° |
| 2026-05-08 18:32 | -7.14575 | 112.57043 | 18534 ft | 384 kts | 293° |
| 2026-05-08 18:32 | -7.13483 | 112.54581 | 19037 ft | 386 kts | 293° |
| 2026-05-08 18:33 | -7.12379 | 112.52108 | 19541 ft | 388 kts | 293° |
| 2026-05-08 18:33 | -7.11270 | 112.49614 | 20043 ft | 391 kts | 292° |
| 2026-05-08 18:33 | -7.10157 | 112.47102 | 20532 ft | 394 kts | 292° |
| 2026-05-08 18:33 | -7.09037 | 112.44577 | 21018 ft | 397 kts | 292° |
| 2026-05-08 18:34 | -7.07905 | 112.42028 | 21489 ft | 400 kts | 292° |
| 2026-05-08 18:34 | -7.06767 | 112.39467 | 21975 ft | 402 kts | 292° |
| 2026-05-08 18:34 | -7.05618 | 112.36885 | 22447 ft | 405 kts | 292° |
| 2026-05-08 18:34 | -7.04461 | 112.34283 | 22910 ft | 408 kts | 292° |
| 2026-05-08 18:35 | -7.03298 | 112.31668 | 23370 ft | 411 kts | 292° |
| 2026-05-08 18:35 | -7.02128 | 112.29038 | 23747 ft | 413 kts | 292° |
| 2026-05-08 18:35 | -7.01020 | 112.26357 | 23830 ft | 417 kts | 290° |
| 2026-05-08 18:35 | -6.99953 | 112.23594 | 23862 ft | 429 kts | 289° |
| 2026-05-08 18:36 | -6.98864 | 112.20759 | 23878 ft | 440 kts | 290° |
| 2026-05-08 18:36 | -6.97749 | 112.17909 | 24411 ft | 434 kts | 290° |
| 2026-05-08 18:36 | -6.96632 | 112.15096 | 24902 ft | 431 kts | 291° |
| 2026-05-08 18:36 | -6.95290 | 112.12408 | 25374 ft | 430 kts | 301° |
| 2026-05-08 18:37 | -6.93689 | 112.09918 | 25883 ft | 427 kts | 303° |
| 2026-05-08 18:37 | -6.92039 | 112.07447 | 26390 ft | 424 kts | 303° |
| 2026-05-08 18:37 | -6.90382 | 112.04984 | 26914 ft | 422 kts | 303° |
| 2026-05-08 18:37 | -6.88767 | 112.02570 | 27421 ft | 419 kts | 303° |
| 2026-05-08 18:38 | -6.87147 | 112.00132 | 27959 ft | 416 kts | 303° |
| 2026-05-08 18:38 | -6.85542 | 111.97700 | 28510 ft | 413 kts | 303° |
| 2026-05-08 18:38 | -6.83964 | 111.95297 | 29061 ft | 410 kts | 303° |
| 2026-05-08 18:38 | -6.82395 | 111.92905 | 29633 ft | 407 kts | 303° |
| 2026-05-08 18:39 | -6.80841 | 111.90533 | 30163 ft | 404 kts | 303° |
| 2026-05-08 18:39 | -6.79371 | 111.88139 | 30648 ft | 400 kts | 300° |
| 2026-05-08 18:39 | -6.77992 | 111.85725 | 31140 ft | 396 kts | 299° |
| 2026-05-08 18:39 | -6.76657 | 111.83326 | 31644 ft | 392 kts | 298° |
| 2026-05-08 18:40 | -6.75336 | 111.80947 | 32150 ft | 387 kts | 298° |
| 2026-05-08 18:40 | -6.74023 | 111.78596 | 32684 ft | 382 kts | 298° |
| 2026-05-08 18:40 | -6.72723 | 111.76282 | 33208 ft | 376 kts | 299° |
| 2026-05-08 18:40 | -6.71455 | 111.74035 | 33630 ft | 374 kts | 299° |
| 2026-05-08 18:41 | -6.70141 | 111.71715 | 33747 ft | 381 kts | 299° |
| 2026-05-08 18:41 | -6.68814 | 111.69377 | 33830 ft | 388 kts | 299° |
| 2026-05-08 18:41 | -6.66100 | 111.64605 | 33970 ft | 402 kts | 299° |
| 2026-05-08 18:42 | -6.63274 | 111.59638 | 34117 ft | 416 kts | 299° |
| 2026-05-08 18:42 | -6.60353 | 111.54506 | 34234 ft | 429 kts | 299° |
| 2026-05-08 18:43 | -6.57356 | 111.49244 | 34340 ft | 441 kts | 299° |
| 2026-05-08 18:43 | -6.54266 | 111.43818 | 34440 ft | 453 kts | 299° |
| 2026-05-08 18:44 | -6.52690 | 111.41052 | 34621 ft | 453 kts | 300° |
| 2026-05-08 18:44 | -6.51134 | 111.38321 | 35115 ft | 447 kts | 300° |
| 2026-05-08 18:44 | -6.49599 | 111.35629 | 35550 ft | 441 kts | 300° |
| 2026-05-08 18:44 | -6.48083 | 111.32968 | 36016 ft | 435 kts | 300° |
| 2026-05-08 18:45 | -6.46589 | 111.30346 | 36484 ft | 429 kts | 300° |
| 2026-05-08 18:45 | -6.45116 | 111.27762 | 36960 ft | 422 kts | 300° |
| 2026-05-08 18:45 | -6.43667 | 111.25220 | 37447 ft | 415 kts | 300° |
| 2026-05-08 18:45 | -6.42242 | 111.22721 | 37873 ft | 411 kts | 300° |
| 2026-05-08 18:46 | -6.39371 | 111.17688 | 37891 ft | 419 kts | 301° |
| 2026-05-08 18:46 | -6.36439 | 111.12551 | 37885 ft | 427 kts | 300° |
| 2026-05-08 18:47 | -6.33528 | 111.07284 | 37891 ft | 435 kts | 299° |
| 2026-05-08 18:47 | -6.30674 | 111.01923 | 37885 ft | 442 kts | 299° |
| 2026-05-08 18:48 | -6.27722 | 110.96383 | 37883 ft | 449 kts | 299° |
| 2026-05-08 18:48 | -6.24758 | 110.90850 | 37885 ft | 456 kts | 299° |
| 2026-05-08 18:49 | -6.22221 | 110.86126 | 37879 ft | 460 kts | 299° |
| 2026-05-08 18:49 | -6.18676 | 110.79530 | 37877 ft | 463 kts | 299° |
| 2026-05-08 18:50 | -6.15622 | 110.73847 | 37862 ft | 460 kts | 299° |
| 2026-05-08 18:50 | -6.12608 | 110.68239 | 37870 ft | 453 kts | 299° |
| 2026-05-08 18:51 | -6.09618 | 110.62680 | 37874 ft | 452 kts | 300° |
| 2026-05-08 18:51 | -6.06633 | 110.57131 | 37887 ft | 452 kts | 300° |
| 2026-05-08 18:52 | -6.03644 | 110.51576 | 37876 ft | 452 kts | 300° |
| 2026-05-08 18:52 | -6.00653 | 110.46017 | 37880 ft | 453 kts | 300° |
| 2026-05-08 18:53 | -5.97655 | 110.40448 | 37879 ft | 454 kts | 300° |
| 2026-05-08 18:53 | -5.94137 | 110.35223 | 37892 ft | 452 kts | 311° |
| 2026-05-08 18:54 | -5.90086 | 110.30364 | 37875 ft | 453 kts | 312° |
| 2026-05-08 18:54 | -5.86039 | 110.25547 | 37866 ft | 455 kts | 311° |
| 2026-05-08 18:55 | -5.79975 | 110.18227 | 37876 ft | 456 kts | 311° |
| 2026-05-08 18:56 | -5.75922 | 110.13303 | 37863 ft | 456 kts | 311° |
| 2026-05-08 18:56 | -5.71872 | 110.08380 | 37871 ft | 456 kts | 311° |
| 2026-05-08 18:57 | -5.67832 | 110.03473 | 37872 ft | 456 kts | 311° |
| 2026-05-08 18:57 | -5.63787 | 109.98562 | 37865 ft | 455 kts | 311° |
| 2026-05-08 18:58 | -5.59758 | 109.93671 | 37862 ft | 454 kts | 311° |
| 2026-05-08 18:58 | -5.55727 | 109.88780 | 37861 ft | 453 kts | 311° |
| 2026-05-08 18:59 | -5.51712 | 109.83910 | 37869 ft | 452 kts | 311° |
| 2026-05-08 18:59 | -5.47724 | 109.79073 | 37865 ft | 451 kts | 311° |
| 2026-05-08 19:00 | -5.44370 | 109.75006 | 37863 ft | 451 kts | 311° |
| 2026-05-08 19:00 | -5.39722 | 109.69371 | 37872 ft | 450 kts | 311° |
| 2026-05-08 19:01 | -5.35727 | 109.64529 | 37857 ft | 450 kts | 311° |
| 2026-05-08 19:01 | -5.31734 | 109.59690 | 37862 ft | 450 kts | 312° |
| 2026-05-08 19:02 | -5.27735 | 109.54846 | 37863 ft | 450 kts | 312° |
| 2026-05-08 19:02 | -5.23759 | 109.50031 | 37857 ft | 451 kts | 312° |
| 2026-05-08 19:03 | -5.19754 | 109.45180 | 37850 ft | 452 kts | 312° |
| 2026-05-08 19:03 | -5.15744 | 109.40327 | 37854 ft | 452 kts | 312° |
| 2026-05-08 19:04 | -5.11726 | 109.35462 | 37862 ft | 453 kts | 312° |
| 2026-05-08 19:04 | -5.07695 | 109.30584 | 37856 ft | 453 kts | 312° |
| 2026-05-08 19:05 | -5.04346 | 109.26533 | 37852 ft | 454 kts | 312° |
| 2026-05-08 19:05 | -5.00316 | 109.21657 | 37856 ft | 454 kts | 312° |
| 2026-05-08 19:06 | -4.96278 | 109.16774 | 37857 ft | 455 kts | 312° |
| 2026-05-08 19:06 | -4.92227 | 109.11875 | 37854 ft | 455 kts | 312° |
| 2026-05-08 19:07 | -4.88187 | 109.06992 | 37857 ft | 455 kts | 312° |
| 2026-05-08 19:07 | -4.84162 | 109.02127 | 37849 ft | 456 kts | 312° |
| 2026-05-08 19:08 | -4.80115 | 108.97237 | 37858 ft | 456 kts | 312° |
| 2026-05-08 19:08 | -4.76063 | 108.92344 | 37852 ft | 455 kts | 312° |
| 2026-05-08 19:09 | -4.72019 | 108.87457 | 37847 ft | 456 kts | 312° |
| 2026-05-08 19:09 | -4.67974 | 108.82570 | 37856 ft | 455 kts | 312° |
| 2026-05-08 19:10 | -4.63922 | 108.77678 | 37852 ft | 455 kts | 312° |
| 2026-05-08 19:10 | -4.59876 | 108.72794 | 37851 ft | 456 kts | 312° |
| 2026-05-08 19:11 | -4.55822 | 108.67900 | 37852 ft | 455 kts | 312° |
| 2026-05-08 19:11 | -4.51773 | 108.63015 | 37857 ft | 456 kts | 312° |
| 2026-05-08 19:12 | -4.47724 | 108.58129 | 37855 ft | 456 kts | 312° |
| 2026-05-08 19:12 | -4.43672 | 108.53241 | 37850 ft | 456 kts | 312° |
| 2026-05-08 19:13 | -4.39637 | 108.48374 | 37854 ft | 456 kts | 312° |
| 2026-05-08 19:13 | -4.35594 | 108.43499 | 37851 ft | 456 kts | 312° |
| 2026-05-08 19:14 | -4.31646 | 108.38510 | 37824 ft | 460 kts | 300° |
| 2026-05-08 19:14 | -4.30563 | 108.35492 | 37878 ft | 464 kts | 282° |
| 2026-05-08 19:14 | -4.30377 | 108.32252 | 37854 ft | 468 kts | 266° |
| 2026-05-08 19:14 | -4.31023 | 108.29046 | 37858 ft | 471 kts | 251° |
| 2026-05-08 19:15 | -4.32441 | 108.26087 | 37865 ft | 473 kts | 237° |
| 2026-05-08 19:15 | -4.34551 | 108.23564 | 37841 ft | 474 kts | 220° |
| 2026-05-08 19:15 | -4.37139 | 108.21517 | 37874 ft | 474 kts | 217° |
| 2026-05-08 19:16 | -4.42508 | 108.17650 | 37864 ft | 476 kts | 215° |
| 2026-05-08 19:16 | -4.47912 | 108.13782 | 37846 ft | 478 kts | 216° |
| 2026-05-08 19:16 | -4.50629 | 108.11804 | 37360 ft | 486 kts | 216° |
| 2026-05-08 19:17 | -4.53317 | 108.09829 | 36834 ft | 484 kts | 216° |
| 2026-05-08 19:17 | -4.56025 | 108.07829 | 36239 ft | 483 kts | 216° |
| 2026-05-08 19:17 | -4.58730 | 108.05826 | 35642 ft | 482 kts | 216° |
| 2026-05-08 19:17 | -4.61427 | 108.03827 | 34986 ft | 483 kts | 216° |
| 2026-05-08 19:18 | -4.64135 | 108.01820 | 34317 ft | 485 kts | 216° |
| 2026-05-08 19:18 | -4.66839 | 107.99818 | 33858 ft | 481 kts | 215° |
| 2026-05-08 19:18 | -4.69521 | 107.97832 | 33301 ft | 478 kts | 215° |
| 2026-05-08 19:18 | -4.72185 | 107.95860 | 32815 ft | 473 kts | 215° |
| 2026-05-08 19:19 | -4.74817 | 107.93912 | 32340 ft | 469 kts | 215° |
| 2026-05-08 19:19 | -4.77431 | 107.91977 | 31875 ft | 464 kts | 215° |
| 2026-05-08 19:19 | -4.79979 | 107.90091 | 31427 ft | 460 kts | 215° |
| 2026-05-08 19:19 | -4.82551 | 107.88187 | 30976 ft | 456 kts | 215° |
| 2026-05-08 19:20 | -4.85091 | 107.86307 | 30522 ft | 452 kts | 215° |
| 2026-05-08 19:20 | -4.86796 | 107.85044 | 30229 ft | 450 kts | 215° |
| 2026-05-08 19:20 | -4.90115 | 107.82587 | 29567 ft | 446 kts | 215° |
| 2026-05-08 19:20 | -4.92596 | 107.80750 | 29074 ft | 441 kts | 215° |
| 2026-05-08 19:21 | -4.95048 | 107.78933 | 28592 ft | 437 kts | 215° |
| 2026-05-08 19:21 | -4.97490 | 107.77125 | 28125 ft | 432 kts | 215° |
| 2026-05-08 19:21 | -4.99892 | 107.75345 | 27671 ft | 428 kts | 215° |
| 2026-05-08 19:21 | -5.02282 | 107.73575 | 27224 ft | 424 kts | 216° |
| 2026-05-08 19:22 | -5.04640 | 107.71828 | 26774 ft | 420 kts | 216° |
| 2026-05-08 19:22 | -5.06986 | 107.70089 | 26347 ft | 417 kts | 216° |
| 2026-05-08 19:22 | -5.09310 | 107.68366 | 25915 ft | 413 kts | 216° |
| 2026-05-08 19:22 | -5.11603 | 107.66667 | 25481 ft | 410 kts | 216° |
| 2026-05-08 19:23 | -5.13906 | 107.64960 | 25039 ft | 408 kts | 216° |
| 2026-05-08 19:23 | -5.16185 | 107.63271 | 24579 ft | 406 kts | 216° |
| 2026-05-08 19:23 | -5.18426 | 107.61559 | 24126 ft | 405 kts | 221° |
| 2026-05-08 19:23 | -5.20209 | 107.59385 | 23668 ft | 404 kts | 240° |
| 2026-05-08 19:24 | -5.21361 | 107.56821 | 23174 ft | 403 kts | 248° |
| 2026-05-08 19:24 | -5.22376 | 107.54199 | 22644 ft | 401 kts | 249° |
| 2026-05-08 19:24 | -5.23357 | 107.51591 | 22168 ft | 399 kts | 249° |
| 2026-05-08 19:24 | -5.24338 | 107.48994 | 21695 ft | 396 kts | 248° |
| 2026-05-08 19:25 | -5.25323 | 107.46424 | 21235 ft | 393 kts | 248° |
| 2026-05-08 19:25 | -5.26298 | 107.43909 | 20786 ft | 391 kts | 248° |
| 2026-05-08 19:25 | -5.27289 | 107.41377 | 20338 ft | 389 kts | 247° |
| 2026-05-08 19:25 | -5.28274 | 107.38867 | 19890 ft | 387 kts | 247° |
| 2026-05-08 19:26 | -5.29260 | 107.36361 | 19427 ft | 385 kts | 247° |
| 2026-05-08 19:26 | -5.30242 | 107.33865 | 18982 ft | 384 kts | 247° |
| 2026-05-08 19:26 | -5.31219 | 107.31383 | 18521 ft | 381 kts | 246° |
| 2026-05-08 19:26 | -5.32176 | 107.28946 | 18062 ft | 371 kts | 246° |
| 2026-05-08 19:27 | -5.33121 | 107.26542 | 17595 ft | 367 kts | 246° |
| 2026-05-08 19:27 | -5.34047 | 107.24185 | 17146 ft | 359 kts | 247° |
| 2026-05-08 19:27 | -5.34946 | 107.21899 | 16724 ft | 349 kts | 247° |
| 2026-05-08 19:27 | -5.35824 | 107.19660 | 16317 ft | 340 kts | 247° |
| 2026-05-08 19:28 | -5.36682 | 107.17465 | 15929 ft | 334 kts | 247° |
| 2026-05-08 19:28 | -5.37526 | 107.15302 | 15552 ft | 333 kts | 247° |
| 2026-05-08 19:28 | -5.38373 | 107.13134 | 15176 ft | 333 kts | 248° |
| 2026-05-08 19:28 | -5.39219 | 107.10968 | 14771 ft | 334 kts | 248° |
| 2026-05-08 19:29 | -5.40066 | 107.08799 | 14380 ft | 330 kts | 248° |
| 2026-05-08 19:29 | -5.40895 | 107.06674 | 13971 ft | 324 kts | 248° |
| 2026-05-08 19:29 | -5.41720 | 107.04560 | 13576 ft | 325 kts | 248° |
| 2026-05-08 19:29 | -5.42544 | 107.02449 | 13165 ft | 325 kts | 248° |
| 2026-05-08 19:30 | -5.43356 | 107.00367 | 12769 ft | 322 kts | 248° |
| 2026-05-08 19:30 | -5.44166 | 106.98291 | 12386 ft | 318 kts | 248° |
| 2026-05-08 19:30 | -5.44970 | 106.96228 | 12103 ft | 314 kts | 248° |
| 2026-05-08 19:30 | -5.45763 | 106.94196 | 11780 ft | 312 kts | 248° |
| 2026-05-08 19:31 | -5.46698 | 106.92239 | 11409 ft | 311 kts | 232° |
| 2026-05-08 19:31 | -5.48271 | 106.90817 | 11056 ft | 301 kts | 207° |
| 2026-05-08 19:31 | -5.50201 | 106.90134 | 10721 ft | 290 kts | 186° |
| 2026-05-08 19:31 | -5.52201 | 106.90022 | 10413 ft | 287 kts | 180° |
| 2026-05-08 19:32 | -5.54207 | 106.90002 | 10068 ft | 289 kts | 179° |
| 2026-05-08 19:32 | -5.56217 | 106.89995 | 9722 ft | 290 kts | 179° |
| 2026-05-08 19:32 | -5.58245 | 106.89983 | 9351 ft | 290 kts | 179° |
| 2026-05-08 19:32 | -5.60240 | 106.89965 | 8991 ft | 284 kts | 179° |
| 2026-05-08 19:33 | -5.62194 | 106.89942 | 8662 ft | 284 kts | 179° |
| 2026-05-08 19:33 | -5.64173 | 106.89917 | 8326 ft | 284 kts | 180° |
| 2026-05-08 19:33 | -5.66149 | 106.89889 | 7998 ft | 284 kts | 180° |
| 2026-05-08 19:33 | -5.68108 | 106.89860 | 7656 ft | 279 kts | 180° |
| 2026-05-08 19:34 | -5.70025 | 106.89832 | 7323 ft | 272 kts | 179° |
| 2026-05-08 19:34 | -5.71906 | 106.89804 | 7016 ft | 271 kts | 179° |
| 2026-05-08 19:34 | -5.73797 | 106.89768 | 6717 ft | 272 kts | 180° |
| 2026-05-08 19:34 | -5.75690 | 106.89728 | 6414 ft | 273 kts | 180° |
| 2026-05-08 19:35 | -5.77596 | 106.89687 | 6083 ft | 274 kts | 180° |
| 2026-05-08 19:35 | -5.79497 | 106.89646 | 5761 ft | 274 kts | 180° |
| 2026-05-08 19:35 | -5.81402 | 106.89605 | 5445 ft | 273 kts | 180° |
| 2026-05-08 19:35 | -5.83273 | 106.89565 | 5117 ft | 266 kts | 180° |
| 2026-05-08 19:36 | -5.85102 | 106.89526 | 4819 ft | 259 kts | 180° |
| 2026-05-08 19:36 | -5.86905 | 106.89488 | 4530 ft | 259 kts | 180° |
| 2026-05-08 19:36 | -5.88663 | 106.89450 | 4359 ft | 244 kts | 180° |
| 2026-05-08 19:36 | -5.90295 | 106.89415 | 4230 ft | 227 kts | 180° |
| 2026-05-08 19:37 | -5.91823 | 106.89383 | 4105 ft | 212 kts | 180° |
| 2026-05-08 19:37 | -5.93288 | 106.89352 | 3665 ft | 215 kts | 180° |
| 2026-05-08 19:37 | -5.94765 | 106.89321 | 3405 ft | 206 kts | 180° |
| 2026-05-08 19:37 | -5.96112 | 106.89140 | 3262 ft | 195 kts | 205° |
| 2026-05-08 19:38 | -5.97162 | 106.88347 | 3159 ft | 187 kts | 220° |
| 2026-05-08 19:38 | -5.98144 | 106.87501 | 3054 ft | 186 kts | 219° |
| 2026-05-08 19:38 | -5.99129 | 106.86656 | 3011 ft | 185 kts | 219° |
| 2026-05-08 19:38 | -6.00098 | 106.85822 | 3004 ft | 182 kts | 219° |
| 2026-05-08 19:39 | -6.01059 | 106.84991 | 2998 ft | 182 kts | 219° |
| 2026-05-08 19:39 | -6.02016 | 106.84164 | 3018 ft | 182 kts | 219° |
| 2026-05-08 19:39 | -6.02979 | 106.83332 | 3006 ft | 183 kts | 219° |
| 2026-05-08 19:39 | -6.03909 | 106.82495 | 2990 ft | 177 kts | 228° |
| 2026-05-08 19:40 | -6.04504 | 106.81441 | 2909 ft | 170 kts | 242° |
| 2026-05-08 19:40 | -6.05023 | 106.80386 | 2699 ft | 166 kts | 244° |
| 2026-05-08 19:40 | -6.05480 | 106.79328 | 2470 ft | 163 kts | 246° |
| 2026-05-08 19:40 | -6.05903 | 106.78284 | 2270 ft | 160 kts | 247° |
| 2026-05-08 19:41 | -6.06318 | 106.77240 | 2068 ft | 162 kts | 247° |
| 2026-05-08 19:41 | -6.06734 | 106.76191 | 1854 ft | 160 kts | 247° |
| 2026-05-08 19:41 | -6.07145 | 106.75154 | 1650 ft | 159 kts | 247° |
| 2026-05-08 19:41 | -6.07554 | 106.74121 | 1442 ft | 159 kts | 247° |
| 2026-05-08 19:42 | -6.07959 | 106.73098 | 1238 ft | 157 kts | 247° |
| 2026-05-08 19:42 | -6.08364 | 106.72076 | 1034 ft | 157 kts | 247° |
| 2026-05-08 19:42 | -6.08757 | 106.71084 | 860 ft | 156 kts | 246° |
| 2026-05-08 19:42 | -6.09159 | 106.70070 | 669 ft | 155 kts | 247° |
| 2026-05-08 19:43 | -6.09557 | 106.69063 | 481 ft | 155 kts | 248° |
| 2026-05-08 19:43 | -6.09951 | 106.68061 | 366 ft | 150 kts | 248° |
| 2026-05-08 19:43 | -6.10317 | 106.67130 | 136 ft | 138 kts | 249° |
| 2026-05-08 19:43 | -6.10662 | 106.66264 | 40 ft | 126 kts | 249° |
| 2026-05-08 19:44 | -6.10948 | 106.65559 | 42 ft | 92 kts | 248° |
| 2026-05-08 19:44 | -6.11139 | 106.65079 | 37 ft | 56 kts | 249° |
| 2026-05-08 19:44 | -6.11254 | 106.64848 | 41 ft | 29 kts | 229° |
| 2026-05-08 19:44 | -6.11334 | 106.64776 | 40 ft | 0 kts | 218° |
| 2026-05-08 19:45 | -6.11338 | 106.64773 | 40 ft | 2 kts | 217° |
| 2026-05-08 19:45 | -6.11352 | 106.64762 | 40 ft | 0 kts | 217° |
| 2026-05-08 19:45 | -6.11365 | 106.64752 | 40 ft | 7 kts | 217° |
| 2026-05-08 19:45 | -6.11441 | 106.64715 | 39 ft | 16 kts | 187° |
| 2026-05-08 19:46 | -6.11542 | 106.64767 | 39 ft | 17 kts | 107° |
| 2026-05-08 19:46 | -6.11506 | 106.64890 | 38 ft | 20 kts | 68° |
| 2026-05-08 19:46 | -6.11391 | 106.65179 | 38 ft | 25 kts | 69° |
| 2026-05-08 19:47 | -6.11322 | 106.65348 | 36 ft | 27 kts | 70° |
| 2026-05-08 19:47 | -6.11251 | 106.65529 | 38 ft | 26 kts | 68° |
| 2026-05-08 19:47 | -6.11316 | 106.65648 | 38 ft | 20 kts | 159° |
| 2026-05-08 19:47 | -6.11410 | 106.65734 | 38 ft | 20 kts | 101° |
| 2026-05-08 19:48 | -6.11424 | 106.65819 | 37 ft | 10 kts | 102° |
| 2026-05-08 19:48 | -6.11453 | 106.65869 | 37 ft | 8 kts | 137° |
| 2026-05-08 19:48 | -6.11513 | 106.65899 | 37 ft | 12 kts | 156° |
| 2026-05-08 19:48 | -6.11596 | 106.65940 | 37 ft | 15 kts | 154° |
| 2026-05-08 19:49 | -6.11702 | 106.65985 | 37 ft | 14 kts | 159° |
| 2026-05-08 19:49 | -6.11728 | 106.65994 | 37 ft | 3 kts | 159° |
| 2026-05-08 19:49 | -6.11763 | 106.66009 | 37 ft | 7 kts | 152° |
| 2026-05-08 19:49 | -6.11800 | 106.66051 | 37 ft | 7 kts | 104° |
| 2026-05-08 19:50 | -6.11789 | 106.66098 | 37 ft | 9 kts | 69° |
| 2026-05-08 19:50 | -6.11774 | 106.66136 | 37 ft | 0 kts | 69° |
| 2026-05-08 19:51 | -6.11769 | 106.66149 | 36 ft | 4 kts | 68° |
| 2026-05-08 19:51 | -6.11757 | 106.66179 | 37 ft | 10 kts | 68° |
| 2026-05-08 19:51 | -6.11704 | 106.66310 | 37 ft | 20 kts | 68° |
| 2026-05-08 19:52 | -6.11672 | 106.66390 | 37 ft | 16 kts | 68° |
| 2026-05-08 19:52 | -6.11630 | 106.66497 | 37 ft | 16 kts | 68° |
| 2026-05-08 19:52 | -6.11589 | 106.66600 | 37 ft | 16 kts | 68° |
| 2026-05-08 19:52 | -6.11550 | 106.66699 | 37 ft | 14 kts | 68° |
| 2026-05-08 19:53 | -6.11532 | 106.66769 | 37 ft | 8 kts | 111° |
| 2026-05-08 19:53 | -6.11549 | 106.66785 | 35 ft | 0 kts | 154° |
| 2026-05-08 19:53 | -6.11554 | 106.66787 | 36 ft | 2 kts | 155° |
| 2026-05-08 19:53 | -6.11570 | 106.66793 | 37 ft | 3 kts | 161° |
| 2026-05-08 19:54 | -6.11594 | 106.66801 | 37 ft | 2 kts | 161° |
| 2026-05-08 19:54 | -6.11599 | 106.66803 | 37 ft | 1 kts | 157° |
| 2026-05-08 19:54 | -6.11605 | 106.66807 | 37 ft | 1 kts | 146° |
| 2026-05-08 19:54 | -6.11612 | 106.66812 | 37 ft | 0 kts | 141° |
| 2026-05-08 19:55 | -6.11615 | 106.66815 | 35 ft | 0 kts | 139° |
| 2026-05-08 19:55 | -6.11619 | 106.66819 | 35 ft | 1 kts | 137° |
| 2026-05-08 19:55 | -6.11622 | 106.66822 | 36 ft | 0 kts | 136° |